createdAt,value
2023-03-29T00:00:35.933Z,6
2023-03-29T00:10:42.135Z,6
2023-03-29T00:20:48.348Z,6
2023-03-29T00:30:54.549Z,5.9
2023-03-29T00:41:00.778Z,5.9
2023-03-29T00:51:06.980Z,5.8
2023-03-29T01:01:12.242Z,5.7
2023-03-29T01:11:18.456Z,5.7
2023-03-29T01:21:24.679Z,5.6
2023-03-29T01:31:30.906Z,5.6
2023-03-29T01:41:37.097Z,5.5
2023-03-29T01:51:43.305Z,5.5
2023-03-29T02:01:49.522Z,5.4
2023-03-29T02:11:55.724Z,5.4
2023-03-29T02:22:01.964Z,5.4
2023-03-29T02:32:08.153Z,5.4
2023-03-29T02:42:14.359Z,5.4
2023-03-29T02:52:20.573Z,5.3
2023-03-29T03:02:26.789Z,5.3
2023-03-29T03:12:32.047Z,5.3
2023-03-29T03:22:38.269Z,5.3
2023-03-29T03:32:44.477Z,5.3
2023-03-29T03:42:50.688Z,5.3
2023-03-29T03:52:56.897Z,5.2
2023-03-29T04:03:03.100Z,5.1
2023-03-29T04:13:09.316Z,5.1
2023-03-29T04:23:15.521Z,5.1
2023-03-29T04:33:21.730Z,5.1
2023-03-29T04:43:27.948Z,5.2
2023-03-29T04:53:34.169Z,5.3
2023-03-29T05:03:40.406Z,5.2
2023-03-29T05:13:46.599Z,5.3
2023-03-29T05:23:52.796Z,5.3
2023-03-29T05:33:58.059Z,5.4
2023-03-29T05:44:04.271Z,5.6
2023-03-29T05:54:10.487Z,5.8
2023-03-29T06:04:16.709Z,6.1
2023-03-29T06:14:22.897Z,6.4
2023-03-29T06:24:29.124Z,6.8
2023-03-29T06:34:35.328Z,7
2023-03-29T06:44:41.605Z,7.3
2023-03-29T06:54:47.754Z,7.2
2023-03-29T07:04:53.956Z,7.7
2023-03-29T07:15:00.155Z,7.8
2023-03-29T07:25:06.364Z,8
2023-03-29T07:35:12.585Z,8.2
2023-03-29T07:45:18.789Z,8.3
2023-03-29T07:55:24.033Z,8
2023-03-29T08:05:30.251Z,8.5
2023-03-29T08:15:36.441Z,8.5
2023-03-29T08:25:42.635Z,9.1
2023-03-29T08:35:48.849Z,9.1
2023-03-29T08:45:55.112Z,9.2
2023-03-29T08:56:01.255Z,10.2
2023-03-29T09:06:07.455Z,11.1
2023-03-29T09:26:19.874Z,10.2
2023-03-29T09:36:26.074Z,10.2
2023-03-29T09:56:38.493Z,11.1
2023-03-29T10:06:43.747Z,11.5
2023-03-29T10:16:49.959Z,11.7
2023-03-29T10:26:56.235Z,12.1
2023-03-29T10:37:02.453Z,12
2023-03-29T10:47:08.642Z,12.3
2023-03-29T10:57:14.874Z,12.2
2023-03-29T11:07:21.075Z,12.2
2023-03-29T11:17:27.270Z,13.1
2023-03-29T11:27:33.484Z,13
2023-03-29T11:37:39.696Z,13.6
2023-03-29T11:47:45.895Z,13.9
2023-03-29T11:57:52.116Z,14.6
2023-03-29T12:07:58.296Z,14.6
2023-03-29T12:18:03.548Z,14.8
2023-03-29T12:28:09.950Z,15.5
2023-03-29T12:38:16.144Z,15.9
2023-03-29T12:48:22.354Z,14.7
2023-03-29T12:58:28.569Z,15.1
2023-03-29T13:08:34.767Z,16
2023-03-29T13:18:40.982Z,15.7
2023-03-29T13:28:47.205Z,15.4
2023-03-29T13:38:53.390Z,15.6
2023-03-29T13:48:59.677Z,15.5
2023-03-29T13:59:05.903Z,15.6
2023-03-29T14:09:12.108Z,15.6
2023-03-29T14:19:18.307Z,15.5
2023-03-29T14:29:23.607Z,15.9
2023-03-29T14:39:29.764Z,15.8
2023-03-29T14:49:35.986Z,15.6
2023-03-29T14:59:42.181Z,15.8
2023-03-29T15:09:48.404Z,16.1
2023-03-29T15:19:54.592Z,15.9
2023-03-29T15:30:00.798Z,16.1
2023-03-29T15:40:07.011Z,16.4
2023-03-29T15:50:13.204Z,16.5
2023-03-29T16:00:19.415Z,16.2
2023-03-29T16:10:25.638Z,16.1
2023-03-29T16:20:31.833Z,16
2023-03-29T16:30:38.035Z,15.8
2023-03-29T16:40:43.299Z,15.6
2023-03-29T16:50:49.521Z,15.4
2023-03-29T17:11:01.900Z,15.1
2023-03-29T17:21:08.130Z,15
2023-03-29T17:31:14.328Z,14.9
2023-03-29T17:41:20.556Z,14.7
2023-03-29T17:51:26.724Z,14.5
2023-03-29T18:01:32.950Z,14.4
2023-03-29T18:11:39.170Z,14.3
2023-03-29T18:21:45.359Z,14.1
2023-03-29T18:31:51.564Z,13.9
2023-03-29T18:41:57.777Z,13.8
2023-03-29T18:52:03.018Z,13.7
2023-03-29T19:02:09.241Z,13.6
2023-03-29T19:12:15.442Z,13.5
2023-03-29T19:22:21.633Z,13.4
2023-03-29T19:32:27.859Z,13
2023-03-29T19:42:34.056Z,12.8
2023-03-29T19:52:40.230Z,12.4
2023-03-29T20:02:46.449Z,12.4
2023-03-29T20:12:52.659Z,12
2023-03-29T20:22:58.854Z,11.9
2023-03-29T20:33:05.059Z,11.8
2023-03-29T20:43:11.264Z,11.8
2023-03-29T20:53:17.465Z,11.7
2023-03-29T21:03:22.751Z,11.6
2023-03-29T21:13:28.936Z,11.5
2023-03-29T21:23:35.145Z,11.4
2023-03-29T21:33:41.347Z,11.5
2023-03-29T21:43:47.552Z,11.6
2023-03-29T21:53:53.761Z,11.6
2023-03-29T22:04:00.007Z,11.5
2023-03-29T22:14:06.184Z,11.5
2023-03-29T22:24:12.373Z,11.5
2023-03-29T22:34:18.591Z,11.5
2023-03-29T22:44:24.792Z,11.3
2023-03-29T22:54:31.002Z,11.3
2023-03-29T23:04:36.279Z,11.3
2023-03-29T23:14:42.483Z,11.3
2023-03-29T23:24:48.673Z,11.1
2023-03-29T23:34:54.891Z,11.1
2023-03-29T23:45:01.251Z,11.2
2023-03-29T23:55:07.312Z,11.2
